Time;durP1;ratioP1;P1;durP2;ratioP2;P2;SDS_P1;SDS_P2;PMS_P1;PMS_P2;Temp;Humidity;BMP_temperature;BMP_pressure;BME280_temperature;BME280_humidity;BME280_pressure;Samples;Min_cycle;Max_cycle;Signal;HPM_P1;HPM_P2
2021/11/01 00:00:17;;;;;;;10.82;9.23;;;9.20;99.90;;;10.06;92.30;96615.06;5221099;28;20644;-54
2021/11/01 00:02:50;;;;;;;10.18;9.27;;;9.30;99.90;;;10.09;91.59;96610.06;5222340;28;20203;-54
2021/11/01 00:05:25;;;;;;;9.55;8.75;;;9.20;99.90;;;9.95;90.97;96600.16;5224274;28;20815;-57
2021/11/01 00:07:58;;;;;;;8.82;8.02;;;9.20;99.90;;;10.01;91.04;96603.78;5225331;28;20201;-58
2021/11/01 00:10:32;;;;;;;8.10;7.40;;;9.10;99.90;;;10.01;91.85;96608.91;5224199;28;20201;-55
2021/11/01 00:13:05;;;;;;;8.52;7.82;;;9.20;99.90;;;10.08;92.28;96604.91;5216387;28;20605;-54
2021/11/01 00:15:39;;;;;;;7.00;6.40;;;9.20;99.90;;;10.03;91.75;96599.63;5225001;28;20304;-51
2021/11/01 00:18:13;;;;;;;8.23;7.53;;;9.20;99.90;;;10.06;91.58;96603.97;5218716;28;20207;-54
2021/11/01 00:20:47;;;;;;;7.72;7.03;;;9.20;99.90;;;10.05;92.57;96600.56;5216960;28;20239;-53
2021/11/01 00:23:20;;;;;;;7.65;7.03;;;9.20;99.90;;;9.98;92.83;96593.47;5223591;28;20219;-61
2021/11/01 00:25:53;;;;;;;7.53;6.82;;;9.20;99.90;;;9.99;92.24;96599.47;5223563;28;20243;-54
2021/11/01 00:28:26;;;;;;;7.90;6.93;;;9.20;99.90;;;9.99;92.82;96592.69;5220100;28;20554;-55
2021/11/01 00:31:01;;;;;;;8.00;7.32;;;9.20;99.90;;;10.02;93.10;96597.03;5217381;28;20736;-55
2021/11/01 00:33:34;;;;;;;7.93;7.13;;;9.20;99.90;;;10.04;93.23;96605.59;5219410;28;20215;-56
2021/11/01 00:36:07;;;;;;;7.32;6.72;;;9.20;99.90;;;10.05;94.31;96597.16;5224247;28;20225;-55
2021/11/01 00:38:42;;;;;;;9.68;8.65;;;9.30;99.90;;;10.11;93.52;96597.38;5222729;28;20631;-56
2021/11/01 00:41:16;;;;;;;8.98;8.10;;;9.20;99.90;;;10.08;93.24;96597.25;5224425;28;20193;-58
2021/11/01 00:43:49;;;;;;;9.52;8.63;;;9.30;99.90;;;10.10;93.52;96603.28;5222433;28;20197;-55
2021/11/01 00:46:23;;;;;;;10.52;9.60;;;9.20;99.90;;;10.08;93.30;96602.38;5224986;28;20217;-55
2021/11/01 00:48:56;;;;;;;9.63;8.73;;;9.30;99.90;;;10.10;92.81;96601.63;5223592;28;20602;-55
2021/11/01 00:51:29;;;;;;;8.35;7.65;;;9.30;99.90;;;10.15;93.71;96596.66;5223113;28;20335;-56
2021/11/01 00:54:03;;;;;;;8.48;7.68;;;9.30;99.90;;;10.20;93.19;96602.84;5221606;28;20328;-56
2021/11/01 00:56:37;;;;;;;8.10;7.45;;;9.40;99.90;;;10.23;92.43;96589.31;5221581;28;20213;-55
2021/11/01 00:59:10;;;;;;;11.85;10.82;;;9.40;99.90;;;10.25;92.45;96590.25;5222217;28;20193;-57
2021/11/01 01:01:45;;;;;;;10.20;9.30;;;9.40;99.90;;;10.28;93.47;96591.25;5223243;28;20288;-58
2021/11/01 01:04:19;;;;;;;11.13;10.20;;;9.40;99.90;;;10.29;92.90;96587.88;5223495;28;20274;-53
2021/11/01 01:06:52;;;;;;;8.63;7.93;;;9.50;99.90;;;10.33;92.43;96574.44;5225509;28;20213;-56
2021/11/01 01:09:25;;;;;;;9.82;9.00;;;9.50;99.90;;;10.36;93.12;96569.44;5224850;28;20197;-56
2021/11/01 01:11:59;;;;;;;9.40;8.65;;;9.50;99.90;;;10.32;94.24;96572.66;5223449;28;20227;-53
2021/11/01 01:14:39;;;;;;;9.10;8.38;;;9.50;99.90;;;10.31;92.75;96573.50;5224708;28;20687;-55
2021/11/01 01:17:15;;;;;;;8.00;7.40;;;9.50;99.90;;;10.31;92.63;96577.75;5224059;28;20212;-55
2021/11/01 01:19:53;;;;;;;6.97;6.28;;;9.40;99.90;;;10.21;93.13;96573.91;5224807;28;20199;-53
2021/11/01 01:22:29;;;;;;;6.68;6.10;;;9.30;99.90;;;10.27;93.10;96566.53;5223899;28;20295;-55
2021/11/01 01:25:15;;;;;;;7.50;6.80;;;9.40;99.90;;;10.21;93.37;96566.25;5224158;28;20279;-54
2021/11/01 01:27:50;;;;;;;7.20;6.60;;;9.40;99.90;;;10.22;92.42;96560.34;5223192;28;20216;-54
2021/11/01 01:30:25;;;;;;;7.82;7.13;;;9.30;99.90;;;10.17;92.63;96559.31;5222763;28;20193;-53
2021/11/01 01:33:00;;;;;;;6.90;6.20;;;9.30;99.90;;;10.17;91.99;96553.34;5223797;28;20319;-54
2021/11/01 01:35:35;;;;;;;7.20;6.70;;;9.30;99.90;;;10.17;93.23;96538.88;5221869;28;20236;-56
2021/11/01 01:38:10;;;;;;;7.53;6.90;;;9.40;99.90;;;10.21;93.21;96543.28;5222776;28;20224;-57
2021/11/01 01:40:43;;;;;;;7.10;6.50;;;9.40;99.90;;;10.21;93.55;96535.63;5218893;28;20197;-53
2021/11/01 01:43:16;;;;;;;7.47;6.72;;;9.40;99.90;;;10.26;94.33;96544.31;5222784;28;20635;-57
2021/11/01 01:45:50;;;;;;;9.02;8.23;;;9.50;99.90;;;10.32;94.35;96559.91;5221051;28;20220;-55
2021/11/01 01:48:24;;;;;;;8.40;7.63;;;9.50;99.90;;;10.27;94.31;96558.88;5221518;28;20229;-51
2021/11/01 01:50:59;;;;;;;8.68;7.68;;;9.40;99.90;;;10.23;93.07;96551.88;5223953;28;20308;-56
2021/11/01 01:53:33;;;;;;;7.78;7.07;;;9.30;99.90;;;10.21;93.28;96540.72;5224125;28;20221;-55
2021/11/01 01:56:07;;;;;;;7.85;7.07;;;9.40;99.90;;;10.22;92.37;96549.28;5223393;28;20644;-56
2021/11/01 01:58:51;;;;;;;8.15;7.43;;;9.30;99.90;;;10.21;93.30;96540.72;5223253;28;20648;-60
2021/11/01 02:01:25;;;;;;;8.30;7.50;;;9.40;99.90;;;10.20;92.49;96543.25;5203090;28;20200;-55
2021/11/01 02:04:00;;;;;;;8.30;7.60;;;9.30;99.90;;;10.21;93.48;96540.72;5224332;28;20205;-56
2021/11/01 02:06:59;;;;;;;8.15;7.45;;;9.40;99.90;;;10.22;93.94;96539.94;5224011;28;20245;-54
2021/11/01 02:09:41;;;;;;;7.82;7.15;;;9.40;99.90;;;10.29;93.67;96541.91;5222023;28;20649;-54
2021/11/01 02:12:20;;;;;;;8.25;7.50;;;9.50;99.90;;;10.37;94.72;96544.75;5222556;28;20690;-58
2021/11/01 02:14:57;;;;;;;8.05;7.35;;;9.60;99.90;;;10.49;93.91;96550.28;5223954;28;20690;-57
2021/11/01 02:17:31;;;;;;;7.70;6.97;;;9.60;99.90;;;10.55;92.86;96545.41;5224218;28;20221;-54
2021/11/01 02:20:11;;;;;;;9.63;8.63;;;9.60;99.90;;;10.57;92.47;96554.00;5217446;28;20207;-53
2021/11/01 02:23:00;;;;;;;11.48;10.02;;;9.60;99.90;;;10.62;91.86;96559.28;5222454;28;20320;-53
2021/11/01 02:25:41;;;;;;;10.38;9.23;;;9.60;99.90;;;10.54;91.72;96571.78;5224360;28;20224;-56
2021/11/01 02:28:17;;;;;;;10.13;8.63;;;9.60;99.90;;;10.53;92.35;96580.28;5212716;28;20661;-56
2021/11/01 02:30:51;;;;;;;9.05;8.25;;;9.60;99.90;;;10.52;92.45;96591.28;5223035;28;20292;-52
2021/11/01 02:33:25;;;;;;;9.07;8.18;;;9.70;99.90;;;10.55;92.40;96598.19;5222216;28;20216;-53
2021/11/01 02:35:59;;;;;;;9.43;8.55;;;9.70;99.90;;;10.55;92.52;96616.94;5222386;28;20228;-55
2021/11/01 02:38:33;;;;;;;9.88;8.48;;;9.70;99.90;;;10.62;93.21;96620.59;5222977;28;20508;-53
2021/11/01 02:41:21;;;;;;;8.45;7.43;;;9.70;99.90;;;10.58;94.30;96636.63;5222964;28;20240;-56
2021/11/01 02:43:56;;;;;;;8.57;7.78;;;9.70;99.90;;;10.58;94.81;96646.84;5221762;28;20190;-57
2021/11/01 02:46:31;;;;;;;7.95;7.20;;;9.70;99.90;;;10.49;95.34;96646.50;5215320;28;20223;-56
2021/11/01 02:49:05;;;;;;;7.43;6.80;;;9.70;99.90;;;10.46;95.19;96649.81;5222366;28;20216;-61
2021/11/01 02:51:40;;;;;;;7.00;6.40;;;9.70;99.90;;;10.44;97.28;96659.09;5219008;28;20582;-55
2021/11/01 02:54:13;;;;;;;6.93;6.40;;;9.80;99.90;;;10.59;98.17;96640.94;5225157;28;20676;-56
2021/11/01 02:56:47;;;;;;;6.70;6.07;;;9.90;99.90;;;10.57;98.99;96655.34;5228072;28;20304;-57
2021/11/01 02:59:20;;;;;;;5.45;5.05;;;10.00;99.90;;;10.61;99.89;96636.75;5226516;28;20208;-55
2021/11/01 03:01:53;;;;;;;5.53;5.03;;;10.10;99.90;;;10.86;100.00;96633.41;5226643;28;20205;-58
2021/11/01 03:04:27;;;;;;;4.80;4.40;;;10.30;99.90;;;10.94;100.00;96620.91;5225803;28;20276;-57
2021/11/01 03:07:01;;;;;;;4.38;4.05;;;10.40;99.90;;;11.01;100.00;96622.84;5227161;28;20779;-55
2021/11/01 03:09:38;;;;;;;5.07;4.55;;;10.40;99.90;;;11.04;100.00;96633.16;5225404;28;20200;-53
2021/11/01 03:12:15;;;;;;;5.07;4.65;;;10.40;99.90;;;11.07;100.00;96628.16;5226442;28;20211;-56
2021/11/01 03:14:56;;;;;;;5.72;5.22;;;10.50;99.90;;;11.08;100.00;96626.50;5226924;28;20246;-56
2021/11/01 03:17:38;;;;;;;4.78;4.32;;;10.50;99.90;;;11.07;100.00;96623.03;5224826;28;20704;-59
2021/11/01 03:20:17;;;;;;;5.20;4.70;;;10.50;99.90;;;11.12;100.00;96631.75;5220630;28;20288;-56
2021/11/01 03:22:54;;;;;;;5.43;5.00;;;10.50;99.90;;;11.14;100.00;96632.69;5226660;28;20284;-52
2021/11/01 03:25:37;;;;;;;4.53;4.18;;;10.50;99.90;;;11.18;100.00;96626.84;5226959;28;20201;-57
2021/11/01 03:28:13;;;;;;;4.70;4.25;;;10.60;99.90;;;11.18;100.00;96626.84;5214863;22;20247;-61
2021/11/01 03:30:48;;;;;;;5.47;4.50;;;10.60;99.90;;;11.23;100.00;96630.44;5228300;28;20201;-58
2021/11/01 03:33:23;;;;;;;4.10;3.80;;;10.60;99.90;;;11.24;100.00;96633.88;5219327;28;20217;-59
2021/11/01 03:35:57;;;;;;;4.20;3.78;;;10.60;99.90;;;11.27;100.00;96637.41;5223553;28;20207;-60
2021/11/01 03:38:32;;;;;;;5.07;3.53;;;10.60;99.90;;;11.32;100.00;96641.81;5212172;28;20647;-61
2021/11/01 03:41:08;;;;;;;3.83;3.35;;;10.70;99.90;;;11.32;100.00;96640.13;5208261;28;20206;-58
2021/11/01 03:43:52;;;;;;;3.53;3.22;;;10.70;99.90;;;11.36;100.00;96641.09;5209739;28;20189;-59
2021/11/01 03:46:31;;;;;;;4.68;2.60;;;10.70;99.90;;;11.40;100.00;96637.84;5208072;28;20209;-59
2021/11/01 03:49:08;;;;;;;3.85;2.90;;;10.80;99.90;;;11.42;100.00;96643.88;5219474;28;20201;-60
2021/11/01 03:51:47;;;;;;;3.88;2.70;;;10.80;99.90;;;11.44;100.00;96666.09;5213608;28;20194;-60
2021/11/01 03:54:22;;;;;;;2.90;2.13;;;10.80;99.90;;;11.44;100.00;96671.22;5223685;28;20374;-61
2021/11/01 03:56:57;;;;;;;4.35;2.25;;;10.80;99.90;;;11.48;100.00;96675.66;5213517;28;20303;-61
2021/11/01 03:59:32;;;;;;;3.70;2.55;;;10.80;99.90;;;11.50;100.00;96699.63;5206593;28;20208;-62
2021/11/01 04:02:06;;;;;;;4.10;2.55;;;10.80;99.90;;;11.53;100.00;96693.69;5205394;28;20600;-63
2021/11/01 04:04:39;;;;;;;5.13;2.30;;;10.90;99.90;;;11.54;100.00;96722.75;5212444;28;20319;-63
2021/11/01 04:07:13;;;;;;;4.63;2.40;;;10.80;99.90;;;11.51;100.00;96723.50;5217389;28;20251;-63
2021/11/01 04:09:46;;;;;;;5.03;2.58;;;10.80;99.90;;;11.46;100.00;96727.59;5220405;28;20288;-63
2021/11/01 04:12:19;;;;;;;5.03;2.78;;;10.80;99.90;;;11.46;100.00;96745.50;5216625;28;20226;-63
2021/11/01 04:15:00;;;;;;;4.22;2.58;;;10.80;99.90;;;11.46;100.00;96755.72;5217208;28;20684;-62
2021/11/01 04:17:42;;;;;;;3.72;2.42;;;10.80;99.90;;;11.44;100.00;96750.53;5216616;28;20225;-63
2021/11/01 04:20:31;;;;;;;3.60;2.65;;;10.80;99.90;;;11.46;100.00;96765.97;5205777;28;20662;-63
2021/11/01 04:23:07;;;;;;;3.85;2.58;;;10.70;99.90;;;11.52;100.00;96766.19;5203541;28;20209;-63
2021/11/01 04:25:40;;;;;;;2.97;2.78;;;10.70;99.90;;;11.40;100.00;96768.31;5208372;28;20684;-63
2021/11/01 04:28:13;;;;;;;4.80;2.97;;;10.70;99.90;;;11.41;100.00;96780.28;5211912;28;20229;-63
2021/11/01 04:30:53;;;;;;;4.63;2.90;;;10.70;99.90;;;11.57;100.00;96782.56;5208101;28;20208;-63
2021/11/01 04:33:27;;;;;;;4.05;2.78;;;10.70;99.90;;;11.54;100.00;96779.91;5210696;28;20582;-63
2021/11/01 04:36:01;;;;;;;2.83;2.30;;;10.60;99.90;;;11.44;100.00;96785.50;5209205;28;20212;-62
2021/11/01 04:38:43;;;;;;;2.78;2.10;;;10.50;99.90;;;11.41;100.00;96799.06;5205020;28;20348;-62
2021/11/01 04:41:21;;;;;;;4.78;2.30;;;10.50;99.90;;;11.34;100.00;96796.22;5211427;28;20247;-63
2021/11/01 04:55:19;;;;;;;2.88;1.83;;;10.30;99.90;;;11.09;100.00;96785.09;5206714;28;20210;-62
2021/11/01 04:57:54;;;;;;;3.88;2.30;;;10.30;99.90;;;11.09;100.00;96795.31;5205941;28;20216;-62
2021/11/01 05:00:27;;;;;;;2.72;2.30;;;10.30;99.90;;;11.11;100.00;96798.81;5203056;28;20201;-61
2021/11/01 05:03:05;;;;;;;4.20;2.25;;;10.20;99.90;;;11.07;100.00;96802.03;5208805;28;20206;-62
2021/11/01 05:05:38;;;;;;;3.38;2.10;;;10.20;99.90;;;11.03;100.00;96798.50;5212311;28;20201;-62
2021/11/01 05:08:13;;;;;;;3.67;2.40;;;10.20;99.90;;;11.01;100.00;96796.69;5210535;28;20248;-62
2021/11/01 05:10:50;;;;;;;3.83;2.03;;;10.20;99.90;;;11.04;100.00;96795.16;5218130;28;20226;-62
2021/11/01 05:13:27;;;;;;;2.28;1.92;;;10.10;99.90;;;11.01;100.00;96807.78;5206600;28;20194;-61
2021/11/01 05:16:06;;;;;;;2.20;2.10;;;10.10;99.90;;;10.95;100.00;96799.91;5207519;28;20198;-62
2021/11/01 05:18:46;;;;;;;2.85;2.20;;;10.10;99.90;;;10.91;100.00;96809.97;5211090;28;20213;-62
2021/11/01 05:21:31;;;;;;;2.95;2.17;;;10.10;99.90;;;10.90;100.00;96808.19;5208007;28;20197;-62
2021/11/01 05:24:07;;;;;;;2.65;2.15;;;10.10;99.90;;;10.87;100.00;96803.84;5207564;28;20197;-62
2021/11/01 05:26:55;;;;;;;4.93;2.15;;;10.10;99.90;;;10.85;100.00;96809.72;5209631;28;20244;-62
2021/11/01 05:29:30;;;;;;;5.25;2.40;;;10.10;99.90;;;10.85;100.00;96809.72;5210580;28;20205;-62
2021/11/01 05:32:09;;;;;;;3.03;2.20;;;10.00;99.90;;;10.83;100.00;96813.06;5208073;28;20300;-62
2021/11/01 05:34:44;;;;;;;3.35;2.20;;;10.00;99.90;;;10.77;100.00;96806.88;5206899;28;20227;-63
2021/11/01 05:37:17;;;;;;;3.38;2.00;;;10.00;99.90;;;10.78;100.00;96804.34;5204741;28;20309;-63
2021/11/01 05:39:50;;;;;;;6.18;2.20;;;10.00;99.90;;;10.77;100.00;96809.41;5204637;28;20663;-62
2021/11/01 05:42:23;;;;;;;4.18;2.40;;;10.00;99.90;;;10.79;100.00;96808.69;5203461;28;20205;-62
2021/11/01 05:44:57;;;;;;;3.45;2.13;;;10.00;99.90;;;10.79;100.00;96802.69;5207172;28;20214;-62
2021/11/01 05:47:30;;;;;;;4.60;2.10;;;9.90;99.90;;;10.78;100.00;96804.34;5201365;28;20218;-62
2021/11/01 05:50:05;;;;;;;3.17;2.13;;;9.90;99.90;;;10.76;100.00;96815.34;5207221;28;20203;-63
2021/11/01 05:52:41;;;;;;;3.70;2.20;;;9.90;99.90;;;10.72;100.00;96808.38;5201441;28;20206;-61
2021/11/01 05:55:23;;;;;;;2.83;2.38;;;9.90;99.90;;;10.70;100.00;96813.44;5200979;28;20219;-62
2021/11/01 05:58:11;;;;;;;5.70;2.10;;;9.90;99.90;;;10.66;100.00;96806.44;5198602;28;20318;-62
2021/11/01 06:01:11;;;;;;;2.53;2.33;;;9.90;99.90;;;10.65;100.00;96806.41;5202908;28;20194;-61
2021/11/01 06:03:45;;;;;;;2.63;2.25;;;9.90;99.90;;;10.69;100.00;96803.13;5200606;28;20210;-61
2021/11/01 06:06:30;;;;;;;4.28;2.50;;;9.90;99.90;;;10.63;100.00;96808.00;5213365;28;20220;-62
2021/11/01 06:14:42;;;;;;;2.13;2.03;;;9.90;99.90;;;10.67;100.00;96815.84;5204867;28;20295;-62
2021/11/01 06:17:15;;;;;;;3.67;2.63;;;9.90;99.90;;;10.67;100.00;96826.06;5217176;28;20673;-61
2021/11/01 06:19:48;;;;;;;3.83;2.50;;;9.80;99.90;;;10.65;100.00;96822.59;5208820;28;20745;-61
2021/11/01 06:22:22;;;;;;;4.50;2.72;;;9.80;99.90;;;10.64;100.00;96828.50;5203870;28;20292;-61
2021/11/01 06:24:58;;;;;;;4.13;2.70;;;9.80;99.90;;;10.63;100.00;96829.31;5210830;28;20193;-61
2021/11/01 06:27:31;;;;;;;3.03;2.78;;;9.80;99.90;;;10.62;100.00;96837.81;5206594;28;20233;-61
2021/11/01 06:30:12;;;;;;;6.10;3.30;;;9.80;99.90;;;10.64;100.00;96828.50;5220651;28;20204;-63
2021/11/01 06:32:47;;;;;;;3.15;2.60;;;9.80;99.90;;;10.64;100.00;96825.94;5207091;28;20208;-62
2021/11/01 06:44:03;;;;;;;4.95;2.97;;;9.80;99.90;;;10.59;100.00;96840.25;5197401;28;20206;-62
2021/11/01 07:15:37;;;;;;;6.75;6.18;;;9.90;99.90;;;10.68;100.00;96862.72;5210292;28;20232;-62
2021/11/01 07:18:16;;;;;;;6.57;5.93;;;9.90;99.90;;;10.68;100.00;96861.03;5209644;28;20283;-62
2021/11/01 07:20:58;;;;;;;6.22;5.55;;;10.00;99.90;;;10.71;100.00;96866.28;5212320;28;20298;-63
2021/11/01 07:23:58;;;;;;;5.75;5.25;;;10.00;99.90;;;10.78;100.00;96862.28;5206217;28;20212;-62
2021/11/01 08:24:34;;;;;;;2.03;1.90;;;9.70;99.90;;;10.68;100.00;96889.16;5198346;28;20292;-64
2021/11/01 08:27:42;;;;;;;2.58;1.70;;;9.70;99.90;;;10.60;100.00;96876.06;5210839;28;20740;-64
2021/11/01 08:36:19;;;;;;;2.75;2.30;;;9.60;99.90;;;10.57;100.00;96893.81;5129837;28;20232;-63
2021/11/01 08:39:14;;;;;;;2.97;2.40;;;9.70;99.90;;;10.57;100.00;96901.47;5204357;28;20210;-64
2021/11/01 08:44:54;;;;;;;3.15;2.20;;;9.70;99.90;;;10.62;100.00;96906.78;5171131;28;20671;-63
2021/11/01 08:47:36;;;;;;;4.45;2.10;;;9.70;99.90;;;10.68;100.00;96917.25;5211614;28;20304;-64
2021/11/01 09:01:51;;;;;;;2.28;2.13;;;9.80;99.90;;;10.72;100.00;96906.34;5211228;28;20743;-65
2021/11/01 09:07:25;;;;;;;2.88;2.63;;;9.80;99.90;;;10.73;100.00;96907.22;5205374;28;20313;-65
2021/11/01 09:13:15;;;;;;;2.28;2.13;;;9.90;99.90;;;10.83;100.00;96899.13;5208147;28;20232;-66
2021/11/01 09:19:03;;;;;;;2.15;2.03;;;9.80;99.90;;;10.73;100.00;96902.09;5163272;28;20564;-65
2021/11/01 09:21:41;;;;;;;3.63;2.10;;;9.80;99.90;;;10.75;100.00;96909.03;5157474;28;20286;-66
2021/11/01 09:27:06;;;;;;;2.35;2.08;;;9.90;99.90;;;10.85;100.00;96907.72;5200016;28;20606;-65
2021/11/01 09:29:53;;;;;;;2.92;2.33;;;9.90;99.90;;;10.78;100.00;96901.47;5203286;28;20569;-65
2021/11/01 09:38:42;;;;;;;2.47;2.28;;;9.80;99.90;;;10.68;100.00;96894.25;5202474;28;21780;-65
2021/11/01 09:41:15;;;;;;;2.40;2.20;;;9.70;99.90;;;10.70;100.00;96879.88;5204576;28;20212;-65
2021/11/01 09:43:51;;;;;;;2.50;2.17;;;9.80;99.90;;;10.55;100.00;96881.78;5202466;28;20194;-65
2021/11/01 09:46:29;;;;;;;2.22;2.13;;;9.70;99.90;;;10.48;100.00;96896.00;5205557;28;20707;-65
2021/11/01 09:51:56;;;;;;;3.50;3.20;;;9.70;99.90;;;10.56;100.00;96893.78;5215567;28;20205;-64
2021/11/01 09:54:31;;;;;;;3.38;2.50;;;9.70;99.90;;;10.57;100.00;96892.94;5203309;28;20202;-64
2021/11/01 09:57:20;;;;;;;3.10;2.80;;;9.60;99.90;;;10.58;100.00;96892.13;5201975;28;20241;-65
2021/11/01 09:59:53;;;;;;;2.50;2.30;;;9.70;99.90;;;10.64;100.00;96891.50;5201059;28;20224;-65
2021/11/01 10:02:27;;;;;;;2.58;2.03;;;9.70;99.90;;;10.59;100.00;96899.88;5201781;28;20194;-65
2021/11/01 10:05:03;;;;;;;1.88;1.77;;;9.50;99.90;;;10.56;100.00;96894.63;5200541;28;20198;-65
2021/11/01 10:07:36;;;;;;;3.17;2.15;;;9.60;99.90;;;10.56;100.00;96898.88;5206213;28;20312;-65
2021/11/01 10:10:12;;;;;;;2.17;2.05;;;9.60;99.90;;;10.48;100.00;96907.91;5204427;28;20208;-65
2021/11/01 10:12:49;;;;;;;2.45;2.25;;;9.60;99.90;;;10.55;100.00;96899.66;5209026;28;20205;-65
2021/11/01 10:18:18;;;;;;;2.15;2.00;;;9.70;99.90;;;10.71;100.00;96894.38;5197404;28;20431;-65
2021/11/01 10:20:54;;;;;;;2.15;1.92;;;9.70;99.90;;;10.55;100.00;96897.97;5209282;28;20639;-64
2021/11/01 10:23:32;;;;;;;2.97;2.40;;;9.60;99.90;;;10.61;100.00;96884.59;5201078;28;20203;-64
2021/11/01 10:26:11;;;;;;;3.08;2.35;;;9.80;99.90;;;10.70;100.00;96886.66;5203778;28;20630;-64
2021/11/01 10:28:45;;;;;;;2.90;2.42;;;9.80;99.90;;;10.70;100.00;96890.09;5203911;28;20213;-64
2021/11/01 10:31:22;;;;;;;3.03;2.70;;;9.90;99.90;;;10.73;100.00;96892.78;5201116;28;20584;-64
2021/11/01 10:34:10;;;;;;;3.17;2.60;;;9.90;99.90;;;10.80;100.00;96901.56;5206015;28;20217;-64
2021/11/01 10:36:46;;;;;;;3.35;2.42;;;10.00;99.90;;;10.86;100.00;96903.50;5198859;28;20224;-63
2021/11/01 10:39:23;;;;;;;4.25;3.35;;;10.00;99.90;;;10.88;100.00;96902.75;5203474;28;20205;-64
2021/11/01 10:42:11;;;;;;;6.47;4.15;;;10.00;99.90;;;10.96;100.00;96895.34;5200422;28;20661;-65
2021/11/01 10:44:58;;;;;;;4.68;3.55;;;10.10;99.90;;;10.91;100.00;96882.41;5202234;28;20739;-63
2021/11/01 11:13:36;;;;;;;5.05;3.25;;;9.90;99.90;;;10.87;100.00;96864.31;5191631;28;20202;-64
2021/11/01 11:16:16;;;;;;;3.38;3.17;;;10.00;99.90;;;10.90;100.00;96856.78;5204128;28;20230;-64
2021/11/01 11:18:58;;;;;;;3.83;3.53;;;10.00;99.90;;;10.96;100.00;96852.78;5209418;28;20664;-64
2021/11/01 11:24:40;;;;;;;4.28;3.38;;;10.10;99.90;;;10.96;100.00;96869.78;5211158;28;20473;-63
2021/11/01 11:39:37;;;;;;;5.05;3.25;;;10.00;99.90;;;10.90;100.00;96839.78;5167287;28;20207;-64
2021/11/01 11:42:38;;;;;;;3.45;3.10;;;10.00;99.90;;;10.87;100.00;96838.75;5169337;28;20187;-64
2021/11/01 11:48:16;;;;;;;4.70;3.42;;;10.00;99.90;;;10.92;100.00;96809.13;5172219;28;20233;-64
2021/11/01 11:50:52;;;;;;;3.20;3.00;;;10.00;99.90;;;10.98;100.00;96811.94;5168250;28;20195;-64
2021/11/01 11:53:25;;;;;;;3.00;2.80;;;10.10;99.90;;;10.95;100.00;96811.81;5170137;28;20323;-64
2021/11/01 11:56:05;;;;;;;3.78;2.95;;;10.00;99.90;;;10.99;100.00;96811.13;5178977;28;20676;-65
2021/11/01 11:58:41;;;;;;;4.78;4.22;;;9.90;99.90;;;11.04;100.00;96817.28;5168328;28;20386;-65
2021/11/01 12:01:25;;;;;;;4.30;3.80;;;10.10;99.90;;;11.02;100.00;96824.03;5172709;28;20289;-65
2021/11/01 12:04:00;;;;;;;5.95;3.80;;;10.10;99.90;;;11.03;100.00;96846.22;5184813;28;20297;-63
2021/11/01 12:06:50;;;;;;;3.55;3.22;;;10.10;99.90;;;11.09;100.00;96851.56;5169553;28;20267;-64
2021/11/01 12:09:27;;;;;;;3.35;3.05;;;10.10;99.90;;;11.15;100.00;96851.78;5177857;28;20203;-65
2021/11/01 12:17:49;;;;;;;4.95;4.10;;;10.30;99.90;;;11.21;100.00;96833.25;5175796;28;20231;-63
2021/11/01 12:20:23;;;;;;;6.07;4.38;;;10.30;99.90;;;11.18;100.00;96838.25;5169409;28;20579;-63
2021/11/01 12:23:03;;;;;;;5.90;5.28;;;10.20;99.90;;;11.19;100.00;96840.88;5169880;28;20564;-60
2021/11/01 12:25:43;;;;;;;5.03;4.28;;;10.20;99.90;;;11.17;100.00;96834.84;5174267;28;20295;-62
2021/11/01 12:28:25;;;;;;;4.20;3.50;;;10.10;99.90;;;11.04;100.00;96822.38;5171318;28;20236;-63
2021/11/01 12:31:00;;;;;;;3.72;3.35;;;10.00;99.90;;;11.06;100.00;96825.88;5175545;28;20195;-63
2021/11/01 12:33:34;;;;;;;4.10;3.70;;;10.00;99.90;;;11.12;100.00;96813.31;5200822;28;20303;-60
2021/11/01 12:36:10;;;;;;;5.30;4.80;;;10.10;99.90;;;11.17;100.00;96808.41;5199762;28;20676;-61
2021/11/01 12:38:49;;;;;;;8.98;6.97;;;10.20;99.90;;;11.11;100.00;96803.91;5197859;28;20208;-61
2021/11/01 12:41:37;;;;;;;3.78;3.47;;;10.10;99.90;;;11.10;100.00;96802.16;5192858;28;20202;-61
2021/11/01 12:58:58;;;;;;;9.00;6.63;;;10.30;99.90;;;11.33;100.00;96792.81;5166977;28;20286;-60
2021/11/01 13:01:32;;;;;;;10.70;7.35;;;10.40;99.90;;;11.36;100.00;96795.47;5178710;28;20197;-62
2021/11/01 13:04:13;;;;;;;8.88;7.00;;;10.30;99.90;;;11.40;100.00;96786.22;5196667;28;20230;-63
2021/11/01 13:07:00;;;;;;;6.68;6.07;;;10.40;99.90;;;11.43;100.00;96776.97;5173106;28;20322;-60
2021/11/01 13:09:40;;;;;;;5.32;4.82;;;10.40;99.90;;;11.47;100.00;96778.84;5170472;28;22214;-62
2021/11/01 13:12:44;;;;;;;4.75;4.25;;;10.50;99.90;;;11.48;100.00;96764.34;5170270;28;20217;-62
2021/11/01 13:18:11;;;;;;;52.50;34.83;;;10.30;99.90;;;11.44;100.00;96757.34;5189100;28;20234;-64
2021/11/01 13:20:51;;;;;;;39.55;26.08;;;10.40;99.90;;;11.42;100.00;96743.66;5178138;28;20684;-60
2021/11/01 13:23:27;;;;;;;13.98;10.82;;;10.40;99.90;;;11.40;100.00;96745.28;5180065;28;20199;-62
2021/11/01 13:26:23;;;;;;;7.10;6.43;;;10.40;99.90;;;11.38;100.00;96749.47;5179517;28;20210;-62
2021/11/01 13:29:19;;;;;;;17.10;15.50;;;10.40;99.90;;;11.38;100.00;96732.41;5179862;28;20207;-61
2021/11/01 13:37:58;;;;;;;8.60;6.47;;;10.30;99.90;;;11.25;100.00;96749.03;5186779;28;20211;-62
2021/11/01 13:40:37;;;;;;;4.80;4.40;;;10.20;99.90;;;11.22;100.00;96756.59;5187350;28;20207;-61
2021/11/01 13:43:11;;;;;;;4.80;4.35;;;10.20;99.90;;;11.20;100.00;96748.00;5180434;28;20213;-62
2021/11/01 13:45:53;;;;;;;38.60;34.88;;;10.20;99.90;;;11.22;100.00;96751.47;5173445;28;20199;-62
2021/11/01 13:48:34;;;;;;;20.63;18.95;;;10.30;99.90;;;11.19;100.00;96753.06;5170234;28;20793;-62
2021/11/01 13:51:10;;;;;;;56.30;52.03;;;10.10;99.90;;;11.17;100.00;96750.44;5166688;28;20563;-62
2021/11/01 13:54:02;;;;;;;44.58;41.08;;;10.10;99.90;;;11.15;100.00;96743.53;5182636;28;20221;-64
2021/11/01 13:56:40;;;;;;;13.52;12.55;;;10.10;99.90;;;11.20;100.00;96742.00;5172582;28;20657;-62
2021/11/01 13:59:28;;;;;;;12.32;10.77;;;10.20;99.90;;;11.19;100.00;96741.16;5187865;28;20203;-64
2021/11/01 14:02:31;;;;;;;9.60;8.70;;;10.30;99.90;;;11.19;100.00;96730.91;5177225;28;20194;-64
2021/11/01 14:13:55;;;;;;;5.80;5.30;;;10.30;99.90;;;11.27;100.00;96719.28;5204631;28;20224;-63
2021/11/01 14:16:33;;;;;;;5.07;4.68;;;10.30;99.90;;;11.29;100.00;96719.31;5179778;28;20595;-63
2021/11/01 14:19:32;;;;;;;3.80;3.50;;;10.30;99.90;;;11.33;100.00;96710.06;5172373;28;20231;-62
2021/11/01 14:59:35;;;;;;;51.08;47.00;;;10.10;99.90;;;11.07;100.00;96729.56;5171194;28;20293;-61
2021/11/01 15:02:54;;;;;;;54.92;50.60;;;10.10;99.90;;;11.03;100.00;96709.00;5168870;28;20194;-62
2021/11/01 15:14:11;;;;;;;43.85;40.58;;;10.00;99.90;;;10.84;100.00;96714.25;5178915;28;20233;-62
2021/11/01 15:19:53;;;;;;;36.95;34.47;;;9.80;99.90;;;10.78;100.00;96709.78;5171549;28;20427;-60
2021/11/01 15:28:22;;;;;;;13.93;12.52;;;9.80;99.90;;;10.69;100.00;96706.88;5170548;28;20223;-61
2021/11/01 15:31:07;;;;;;;11.75;10.75;;;9.80;99.90;;;10.69;100.00;96709.44;5175538;28;20199;-61
2021/11/01 16:19:39;;;;;;;20.42;18.00;;;9.60;99.90;;;10.46;100.00;96708.56;5256444;28;20688;-64
2021/11/01 16:22:15;;;;;;;15.48;13.68;;;9.50;99.90;;;10.44;100.00;96711.88;5248396;28;20299;-59
2021/11/01 16:24:49;;;;;;;9.63;8.68;;;9.50;99.90;;;10.41;100.00;96709.19;5252380;28;20188;-60
2021/11/01 16:27:23;;;;;;;6.10;5.40;;;9.50;99.90;;;10.38;100.00;96715.91;5251347;28;20220;-61
2021/11/01 16:30:00;;;;;;;3.95;3.65;;;9.50;99.90;;;10.33;100.00;96701.22;5254488;28;20646;-59
2021/11/01 16:32:39;;;;;;;3.80;3.50;;;9.40;99.90;;;10.25;100.00;96713.69;5255103;28;20200;-61
2021/11/01 16:35:14;;;;;;;14.82;13.50;;;9.30;99.90;;;10.27;100.00;96719.78;5245473;28;20196;-62
2021/11/01 16:37:58;;;;;;;18.00;16.58;;;9.30;99.90;;;10.28;100.00;96718.09;5253475;28;20230;-59
2021/11/01 16:40:31;;;;;;;12.50;11.52;;;9.30;99.90;;;10.26;100.00;96722.22;5254315;28;20745;-60
2021/11/01 16:43:12;;;;;;;9.50;8.80;;;9.20;99.90;;;10.23;100.00;96714.44;5253476;28;20253;-62